sensor_id;sensor_type;location;lat;lon;timestamp;temperature;humidity
19330;DHT22;9799;48.214;16.388;2023-02-26T00:02:52;5.00;99.90
19330;DHT22;9799;48.214;16.388;2023-02-26T00:06:13;4.80;99.90
19330;DHT22;9799;48.214;16.388;2023-02-26T00:09:34;4.90;99.90
19330;DHT22;9799;48.214;16.388;2023-02-26T00:12:58;4.90;99.90
19330;DHT22;9799;48.214;16.388;2023-02-26T00:16:25;5.00;99.90
19330;DHT22;9799;48.214;16.388;2023-02-26T00:19:47;4.80;99.90
19330;DHT22;9799;48.214;16.388;2023-02-26T00:23:10;4.80;99.90
19330;DHT22;9799;48.214;16.388;2023-02-26T00:26:34;4.90;99.90
19330;DHT22;9799;48.214;16.388;2023-02-26T00:29:57;5.00;99.90
19330;DHT22;9799;48.214;16.388;2023-02-26T00:33:19;4.80;99.90
19330;DHT22;9799;48.214;16.388;2023-02-26T00:36:44;4.90;99.90
19330;DHT22;9799;48.214;16.388;2023-02-26T00:40:14;4.90;99.90
19330;DHT22;9799;48.214;16.388;2023-02-26T00:43:39;4.90;99.90
19330;DHT22;9799;48.214;16.388;2023-02-26T00:47:06;4.90;99.90
19330;DHT22;9799;48.214;16.388;2023-02-26T00:50:30;5.00;99.90
19330;DHT22;9799;48.214;16.388;2023-02-26T00:53:59;5.10;99.90
19330;DHT22;9799;48.214;16.388;2023-02-26T00:57:20;4.90;99.90
19330;DHT22;9799;48.214;16.388;2023-02-26T01:00:42;4.90;99.90
19330;DHT22;9799;48.214;16.388;2023-02-26T01:04:05;4.90;99.90
19330;DHT22;9799;48.214;16.388;2023-02-26T01:07:27;4.90;99.90
19330;DHT22;9799;48.214;16.388;2023-02-26T01:10:50;4.70;99.90
19330;DHT22;9799;48.214;16.388;2023-02-26T01:14:12;4.60;99.90
19330;DHT22;9799;48.214;16.388;2023-02-26T01:17:37;4.80;99.90
19330;DHT22;9799;48.214;16.388;2023-02-26T01:21:03;4.80;99.90
19330;DHT22;9799;48.214;16.388;2023-02-26T01:24:25;4.70;99.90
19330;DHT22;9799;48.214;16.388;2023-02-26T01:27:48;4.70;99.90
19330;DHT22;9799;48.214;16.388;2023-02-26T01:31:14;4.70;99.90
19330;DHT22;9799;48.214;16.388;2023-02-26T01:34:43;4.70;99.90
19330;DHT22;9799;48.214;16.388;2023-02-26T01:38:16;4.60;99.90
19330;DHT22;9799;48.214;16.388;2023-02-26T01:41:40;4.70;99.90
19330;DHT22;9799;48.214;16.388;2023-02-26T01:45:09;4.60;99.90
19330;DHT22;9799;48.214;16.388;2023-02-26T01:48:36;4.50;99.90
19330;DHT22;9799;48.214;16.388;2023-02-26T01:51:58;4.50;99.90
19330;DHT22;9799;48.214;16.388;2023-02-26T01:55:24;4.50;99.90
19330;DHT22;9799;48.214;16.388;2023-02-26T01:58:48;4.50;99.90
19330;DHT22;9799;48.214;16.388;2023-02-26T02:02:12;4.50;99.90
19330;DHT22;9799;48.214;16.388;2023-02-26T02:05:40;4.60;99.90
19330;DHT22;9799;48.214;16.388;2023-02-26T02:09:04;4.30;99.90
19330;DHT22;9799;48.214;16.388;2023-02-26T02:12:33;4.30;99.90
19330;DHT22;9799;48.214;16.388;2023-02-26T02:16:02;4.30;99.90
19330;DHT22;9799;48.214;16.388;2023-02-26T02:19:52;4.40;99.90
19330;DHT22;9799;48.214;16.388;2023-02-26T02:23:16;4.40;99.90
19330;DHT22;9799;48.214;16.388;2023-02-26T02:26:52;4.40;99.90
19330;DHT22;9799;48.214;16.388;2023-02-26T02:30:27;4.50;99.90
19330;DHT22;9799;48.214;16.388;2023-02-26T02:33:58;4.30;99.90
19330;DHT22;9799;48.214;16.388;2023-02-26T02:37:24;4.30;99.90
19330;DHT22;9799;48.214;16.388;2023-02-26T02:40:50;4.10;99.90
19330;DHT22;9799;48.214;16.388;2023-02-26T02:44:16;4.00;99.90
19330;DHT22;9799;48.214;16.388;2023-02-26T02:47:41;4.00;99.90
19330;DHT22;9799;48.214;16.388;2023-02-26T02:51:07;4.10;99.90
19330;DHT22;9799;48.214;16.388;2023-02-26T02:54:33;4.00;99.90
19330;DHT22;9799;48.214;16.388;2023-02-26T02:57:59;4.00;99.90
19330;DHT22;9799;48.214;16.388;2023-02-26T03:01:24;4.00;99.90
19330;DHT22;9799;48.214;16.388;2023-02-26T03:04:46;3.90;99.90
19330;DHT22;9799;48.214;16.388;2023-02-26T03:08:11;4.00;99.90
19330;DHT22;9799;48.214;16.388;2023-02-26T03:11:32;4.00;99.90
19330;DHT22;9799;48.214;16.388;2023-02-26T03:14:54;3.90;99.90
19330;DHT22;9799;48.214;16.388;2023-02-26T03:18:22;3.90;99.90
19330;DHT22;9799;48.214;16.388;2023-02-26T03:21:50;3.90;99.90
19330;DHT22;9799;48.214;16.388;2023-02-26T03:25:18;4.10;99.90
19330;DHT22;9799;48.214;16.388;2023-02-26T03:28:47;4.10;99.90
19330;DHT22;9799;48.214;16.388;2023-02-26T03:32:13;3.90;99.90
19330;DHT22;9799;48.214;16.388;2023-02-26T03:35:43;3.90;99.90
19330;DHT22;9799;48.214;16.388;2023-02-26T03:39:10;3.90;99.90
19330;DHT22;9799;48.214;16.388;2023-02-26T03:42:37;4.00;99.90
19330;DHT22;9799;48.214;16.388;2023-02-26T03:46:04;3.90;99.90
19330;DHT22;9799;48.214;16.388;2023-02-26T03:49:29;3.80;99.90
19330;DHT22;9799;48.214;16.388;2023-02-26T03:52:53;3.80;99.90
19330;DHT22;9799;48.214;16.388;2023-02-26T03:56:19;4.10;99.90
19330;DHT22;9799;48.214;16.388;2023-02-26T03:59:43;4.00;99.90
19330;DHT22;9799;48.214;16.388;2023-02-26T04:03:10;4.00;99.90
19330;DHT22;9799;48.214;16.388;2023-02-26T04:06:33;4.10;99.90
19330;DHT22;9799;48.214;16.388;2023-02-26T04:09:55;3.90;99.90
19330;DHT22;9799;48.214;16.388;2023-02-26T04:13:17;3.80;99.90
19330;DHT22;9799;48.214;16.388;2023-02-26T04:16:39;3.90;99.90
19330;DHT22;9799;48.214;16.388;2023-02-26T04:20:01;4.00;99.90
19330;DHT22;9799;48.214;16.388;2023-02-26T04:23:26;3.90;99.90
19330;DHT22;9799;48.214;16.388;2023-02-26T04:26:48;3.90;99.90
19330;DHT22;9799;48.214;16.388;2023-02-26T04:30:10;3.70;99.90
19330;DHT22;9799;48.214;16.388;2023-02-26T04:33:33;3.70;99.90
19330;DHT22;9799;48.214;16.388;2023-02-26T04:36:54;3.70;99.90
19330;DHT22;9799;48.214;16.388;2023-02-26T04:40:16;3.80;99.90
19330;DHT22;9799;48.214;16.388;2023-02-26T04:43:37;4.00;99.90
19330;DHT22;9799;48.214;16.388;2023-02-26T04:46:58;4.00;99.90
19330;DHT22;9799;48.214;16.388;2023-02-26T04:50:20;3.90;99.90
19330;DHT22;9799;48.214;16.388;2023-02-26T04:53:42;3.80;99.90
19330;DHT22;9799;48.214;16.388;2023-02-26T04:57:04;3.80;99.90
19330;DHT22;9799;48.214;16.388;2023-02-26T05:00:25;3.80;99.90
19330;DHT22;9799;48.214;16.388;2023-02-26T05:03:46;3.70;99.90
19330;DHT22;9799;48.214;16.388;2023-02-26T05:07:09;3.60;99.90
19330;DHT22;9799;48.214;16.388;2023-02-26T05:10:30;3.50;99.90
19330;DHT22;9799;48.214;16.388;2023-02-26T05:13:52;3.40;99.90
19330;DHT22;9799;48.214;16.388;2023-02-26T05:17:13;3.40;99.90
19330;DHT22;9799;48.214;16.388;2023-02-26T05:20:34;3.60;99.90
19330;DHT22;9799;48.214;16.388;2023-02-26T05:23:56;3.70;99.90
19330;DHT22;9799;48.214;16.388;2023-02-26T05:27:18;3.70;99.90
19330;DHT22;9799;48.214;16.388;2023-02-26T05:30:39;3.60;99.90
19330;DHT22;9799;48.214;16.388;2023-02-26T05:34:00;3.70;99.90
19330;DHT22;9799;48.214;16.388;2023-02-26T05:37:21;3.50;99.90
19330;DHT22;9799;48.214;16.388;2023-02-26T05:40:44;3.50;99.90
19330;DHT22;9799;48.214;16.388;2023-02-26T05:44:05;3.50;99.90
19330;DHT22;9799;48.214;16.388;2023-02-26T05:47:28;3.50;99.90
19330;DHT22;9799;48.214;16.388;2023-02-26T05:50:49;3.40;99.90
19330;DHT22;9799;48.214;16.388;2023-02-26T05:54:11;3.20;99.90
19330;DHT22;9799;48.214;16.388;2023-02-26T05:57:33;3.20;99.90
19330;DHT22;9799;48.214;16.388;2023-02-26T06:00:56;3.30;99.90
19330;DHT22;9799;48.214;16.388;2023-02-26T06:04:18;3.20;99.90
19330;DHT22;9799;48.214;16.388;2023-02-26T06:07:39;3.40;99.90
19330;DHT22;9799;48.214;16.388;2023-02-26T06:11:00;3.40;99.90
19330;DHT22;9799;48.214;16.388;2023-02-26T06:14:23;3.50;99.90
19330;DHT22;9799;48.214;16.388;2023-02-26T06:17:44;3.50;99.90
19330;DHT22;9799;48.214;16.388;2023-02-26T06:21:05;3.30;99.90
19330;DHT22;9799;48.214;16.388;2023-02-26T06:24:26;3.20;99.90
19330;DHT22;9799;48.214;16.388;2023-02-26T06:27:48;3.40;99.90
19330;DHT22;9799;48.214;16.388;2023-02-26T06:31:10;3.60;99.90
19330;DHT22;9799;48.214;16.388;2023-02-26T06:34:32;3.50;99.90
19330;DHT22;9799;48.214;16.388;2023-02-26T06:37:53;3.60;99.90
19330;DHT22;9799;48.214;16.388;2023-02-26T06:41:14;3.50;99.90
19330;DHT22;9799;48.214;16.388;2023-02-26T06:44:35;3.40;99.90
19330;DHT22;9799;48.214;16.388;2023-02-26T06:47:58;3.50;99.90
19330;DHT22;9799;48.214;16.388;2023-02-26T06:51:19;3.40;99.90
19330;DHT22;9799;48.214;16.388;2023-02-26T06:54:40;3.30;99.90
19330;DHT22;9799;48.214;16.388;2023-02-26T06:58:02;3.30;99.90
19330;DHT22;9799;48.214;16.388;2023-02-26T07:01:23;3.40;99.90
19330;DHT22;9799;48.214;16.388;2023-02-26T07:04:46;3.30;99.90
19330;DHT22;9799;48.214;16.388;2023-02-26T07:08:07;3.40;99.90
19330;DHT22;9799;48.214;16.388;2023-02-26T07:11:28;3.40;99.90
19330;DHT22;9799;48.214;16.388;2023-02-26T07:14:50;3.40;99.90
19330;DHT22;9799;48.214;16.388;2023-02-26T07:18:11;3.50;99.90
19330;DHT22;9799;48.214;16.388;2023-02-26T07:21:33;3.40;99.90
19330;DHT22;9799;48.214;16.388;2023-02-26T07:24:54;3.50;99.90
19330;DHT22;9799;48.214;16.388;2023-02-26T07:28:16;3.50;99.90
19330;DHT22;9799;48.214;16.388;2023-02-26T07:31:37;3.40;99.90
19330;DHT22;9799;48.214;16.388;2023-02-26T07:34:58;3.40;99.90
19330;DHT22;9799;48.214;16.388;2023-02-26T07:38:21;3.40;99.90
19330;DHT22;9799;48.214;16.388;2023-02-26T07:41:42;3.50;99.90
19330;DHT22;9799;48.214;16.388;2023-02-26T07:45:04;3.60;99.90
19330;DHT22;9799;48.214;16.388;2023-02-26T07:48:26;3.60;99.90
19330;DHT22;9799;48.214;16.388;2023-02-26T07:51:47;3.60;99.90
19330;DHT22;9799;48.214;16.388;2023-02-26T07:55:10;3.70;99.90
19330;DHT22;9799;48.214;16.388;2023-02-26T07:58:31;3.80;99.90
19330;DHT22;9799;48.214;16.388;2023-02-26T08:01:53;3.80;99.90
19330;DHT22;9799;48.214;16.388;2023-02-26T08:05:14;3.80;99.90
19330;DHT22;9799;48.214;16.388;2023-02-26T08:08:36;3.80;99.90
19330;DHT22;9799;48.214;16.388;2023-02-26T08:11:58;3.80;99.90
19330;DHT22;9799;48.214;16.388;2023-02-26T08:15:19;4.00;99.90
19330;DHT22;9799;48.214;16.388;2023-02-26T08:18:40;4.10;99.90
19330;DHT22;9799;48.214;16.388;2023-02-26T08:22:02;4.00;99.90
19330;DHT22;9799;48.214;16.388;2023-02-26T08:25:23;3.90;99.90
19330;DHT22;9799;48.214;16.388;2023-02-26T08:28:46;4.10;99.90
19330;DHT22;9799;48.214;16.388;2023-02-26T08:32:07;4.10;99.90
19330;DHT22;9799;48.214;16.388;2023-02-26T08:35:29;4.00;99.90
19330;DHT22;9799;48.214;16.388;2023-02-26T08:38:50;4.00;99.90
19330;DHT22;9799;48.214;16.388;2023-02-26T08:42:11;4.10;99.90
19330;DHT22;9799;48.214;16.388;2023-02-26T08:45:36;3.90;99.90
19330;DHT22;9799;48.214;16.388;2023-02-26T08:48:57;4.00;99.90
19330;DHT22;9799;48.214;16.388;2023-02-26T08:52:18;4.20;99.90
19330;DHT22;9799;48.214;16.388;2023-02-26T08:55:40;4.20;99.90
19330;DHT22;9799;48.214;16.388;2023-02-26T08:59:03;4.10;99.90
19330;DHT22;9799;48.214;16.388;2023-02-26T09:02:26;4.20;99.90
19330;DHT22;9799;48.214;16.388;2023-02-26T09:05:47;4.10;99.90
19330;DHT22;9799;48.214;16.388;2023-02-26T09:09:08;4.00;99.90
19330;DHT22;9799;48.214;16.388;2023-02-26T09:12:31;4.20;99.90
19330;DHT22;9799;48.214;16.388;2023-02-26T09:15:55;4.20;99.90
19330;DHT22;9799;48.214;16.388;2023-02-26T09:19:17;4.30;99.90
19330;DHT22;9799;48.214;16.388;2023-02-26T09:22:39;4.50;99.90
19330;DHT22;9799;48.214;16.388;2023-02-26T09:26:00;4.70;99.90
19330;DHT22;9799;48.214;16.388;2023-02-26T09:29:22;4.60;99.90
19330;DHT22;9799;48.214;16.388;2023-02-26T09:32:43;4.60;99.90
19330;DHT22;9799;48.214;16.388;2023-02-26T09:36:06;4.40;99.90
19330;DHT22;9799;48.214;16.388;2023-02-26T09:39:27;4.10;99.90
19330;DHT22;9799;48.214;16.388;2023-02-26T09:43:01;4.30;99.90
19330;DHT22;9799;48.214;16.388;2023-02-26T09:46:31;4.40;99.90
19330;DHT22;9799;48.214;16.388;2023-02-26T09:50:00;4.30;99.90
19330;DHT22;9799;48.214;16.388;2023-02-26T09:53:28;4.40;99.90
19330;DHT22;9799;48.214;16.388;2023-02-26T09:56:52;4.60;99.90
19330;DHT22;9799;48.214;16.388;2023-02-26T10:00:22;4.70;99.90
19330;DHT22;9799;48.214;16.388;2023-02-26T10:03:54;4.70;99.90
19330;DHT22;9799;48.214;16.388;2023-02-26T10:07:25;5.00;99.90
19330;DHT22;9799;48.214;16.388;2023-02-26T10:10:58;4.90;99.90
19330;DHT22;9799;48.214;16.388;2023-02-26T10:14:25;4.90;99.90
19330;DHT22;9799;48.214;16.388;2023-02-26T10:17:57;4.80;99.90
19330;DHT22;9799;48.214;16.388;2023-02-26T10:21:24;5.10;99.90
19330;DHT22;9799;48.214;16.388;2023-02-26T10:24:50;5.00;99.90
19330;DHT22;9799;48.214;16.388;2023-02-26T10:28:33;5.00;99.90
19330;DHT22;9799;48.214;16.388;2023-02-26T10:32:01;4.90;99.90
19330;DHT22;9799;48.214;16.388;2023-02-26T10:35:26;5.00;99.90
19330;DHT22;9799;48.214;16.388;2023-02-26T10:38:53;5.00;99.90
19330;DHT22;9799;48.214;16.388;2023-02-26T10:42:20;5.10;99.90
19330;DHT22;9799;48.214;16.388;2023-02-26T10:45:53;4.90;99.50
19330;DHT22;9799;48.214;16.388;2023-02-26T10:49:32;4.80;99.70
19330;DHT22;9799;48.214;16.388;2023-02-26T10:52:56;5.10;99.20
19330;DHT22;9799;48.214;16.388;2023-02-26T10:56:22;5.20;98.30
19330;DHT22;9799;48.214;16.388;2023-02-26T10:59:44;5.20;98.70
19330;DHT22;9799;48.214;16.388;2023-02-26T11:03:12;5.20;98.60
19330;DHT22;9799;48.214;16.388;2023-02-26T11:06:40;5.10;99.30
19330;DHT22;9799;48.214;16.388;2023-02-26T11:10:03;5.20;99.40
19330;DHT22;9799;48.214;16.388;2023-02-26T11:13:27;5.10;97.30
19330;DHT22;9799;48.214;16.388;2023-02-26T11:16:51;4.90;97.60
19330;DHT22;9799;48.214;16.388;2023-02-26T11:20:29;5.10;98.00
19330;DHT22;9799;48.214;16.388;2023-02-26T11:23:56;5.30;99.90
19330;DHT22;9799;48.214;16.388;2023-02-26T11:27:20;4.80;99.90
19330;DHT22;9799;48.214;16.388;2023-02-26T11:30:43;4.50;99.90
19330;DHT22;9799;48.214;16.388;2023-02-26T11:34:08;4.30;99.90
19330;DHT22;9799;48.214;16.388;2023-02-26T11:37:35;4.50;99.90
19330;DHT22;9799;48.214;16.388;2023-02-26T11:40:58;4.80;99.90
19330;DHT22;9799;48.214;16.388;2023-02-26T11:44:29;4.90;99.90
19330;DHT22;9799;48.214;16.388;2023-02-26T11:47:57;5.00;99.90
19330;DHT22;9799;48.214;16.388;2023-02-26T11:51:24;4.90;99.90
19330;DHT22;9799;48.214;16.388;2023-02-26T11:54:50;4.90;99.90
19330;DHT22;9799;48.214;16.388;2023-02-26T11:58:18;5.00;99.90
19330;DHT22;9799;48.214;16.388;2023-02-26T12:01:40;5.10;99.90
19330;DHT22;9799;48.214;16.388;2023-02-26T12:05:05;5.30;99.90
19330;DHT22;9799;48.214;16.388;2023-02-26T12:08:29;5.60;99.90
19330;DHT22;9799;48.214;16.388;2023-02-26T12:12:09;5.30;99.90
19330;DHT22;9799;48.214;16.388;2023-02-26T12:15:36;5.00;99.90
19330;DHT22;9799;48.214;16.388;2023-02-26T12:19:05;5.20;99.90
19330;DHT22;9799;48.214;16.388;2023-02-26T12:22:39;5.40;99.90
19330;DHT22;9799;48.214;16.388;2023-02-26T12:26:17;5.30;99.90
19330;DHT22;9799;48.214;16.388;2023-02-26T12:29:58;5.10;99.90
19330;DHT22;9799;48.214;16.388;2023-02-26T12:33:32;5.00;99.90
19330;DHT22;9799;48.214;16.388;2023-02-26T12:37:19;5.20;99.90
19330;DHT22;9799;48.214;16.388;2023-02-26T12:41:07;5.10;99.90
19330;DHT22;9799;48.214;16.388;2023-02-26T12:45:03;5.30;99.90
19330;DHT22;9799;48.214;16.388;2023-02-26T12:52:49;5.40;99.90
19330;DHT22;9799;48.214;16.388;2023-02-26T13:00:26;4.80;99.90
19330;DHT22;9799;48.214;16.388;2023-02-26T13:04:11;4.80;99.90
19330;DHT22;9799;48.214;16.388;2023-02-26T13:07:55;4.80;99.90
19330;DHT22;9799;48.214;16.388;2023-02-26T13:11:40;5.00;99.90
19330;DHT22;9799;48.214;16.388;2023-02-26T13:15:21;5.00;99.90
19330;DHT22;9799;48.214;16.388;2023-02-26T13:18:51;4.90;99.90
19330;DHT22;9799;48.214;16.388;2023-02-26T13:22:17;4.90;99.90
19330;DHT22;9799;48.214;16.388;2023-02-26T13:25:42;4.80;99.90
19330;DHT22;9799;48.214;16.388;2023-02-26T13:29:14;5.00;99.90
19330;DHT22;9799;48.214;16.388;2023-02-26T13:32:38;5.10;99.90
19330;DHT22;9799;48.214;16.388;2023-02-26T13:36:03;5.20;99.90
19330;DHT22;9799;48.214;16.388;2023-02-26T13:39:40;5.20;99.90
19330;DHT22;9799;48.214;16.388;2023-02-26T13:43:17;5.00;99.90
19330;DHT22;9799;48.214;16.388;2023-02-26T13:47:03;4.80;99.90
19330;DHT22;9799;48.214;16.388;2023-02-26T13:50:34;4.90;99.90
19330;DHT22;9799;48.214;16.388;2023-02-26T13:53:59;4.90;99.90
19330;DHT22;9799;48.214;16.388;2023-02-26T13:57:36;4.90;99.90
19330;DHT22;9799;48.214;16.388;2023-02-26T14:01:08;4.80;98.70
19330;DHT22;9799;48.214;16.388;2023-02-26T14:04:32;4.80;97.30
19330;DHT22;9799;48.214;16.388;2023-02-26T14:12:31;5.00;96.00
19330;DHT22;9799;48.214;16.388;2023-02-26T14:16:00;5.00;95.60
19330;DHT22;9799;48.214;16.388;2023-02-26T14:19:26;5.00;95.40
19330;DHT22;9799;48.214;16.388;2023-02-26T14:22:52;5.00;95.50
19330;DHT22;9799;48.214;16.388;2023-02-26T14:26:22;5.00;95.80
19330;DHT22;9799;48.214;16.388;2023-02-26T14:30:02;5.00;99.90
19330;DHT22;9799;48.214;16.388;2023-02-26T14:33:28;4.90;99.90
19330;DHT22;9799;48.214;16.388;2023-02-26T14:36:52;4.70;99.90
19330;DHT22;9799;48.214;16.388;2023-02-26T14:40:18;4.50;99.90
19330;DHT22;9799;48.214;16.388;2023-02-26T14:43:43;4.40;99.90
19330;DHT22;9799;48.214;16.388;2023-02-26T14:47:10;4.50;99.90
19330;DHT22;9799;48.214;16.388;2023-02-26T14:50:40;4.60;99.90
19330;DHT22;9799;48.214;16.388;2023-02-26T14:54:31;4.50;99.90
19330;DHT22;9799;48.214;16.388;2023-02-26T14:58:10;4.60;99.90
19330;DHT22;9799;48.214;16.388;2023-02-26T15:01:50;4.60;99.90
19330;DHT22;9799;48.214;16.388;2023-02-26T15:05:42;4.70;99.90
19330;DHT22;9799;48.214;16.388;2023-02-26T15:09:14;4.60;99.90
19330;DHT22;9799;48.214;16.388;2023-02-26T15:12:47;4.70;99.90
19330;DHT22;9799;48.214;16.388;2023-02-26T15:16:22;4.70;99.90
19330;DHT22;9799;48.214;16.388;2023-02-26T15:20:00;4.50;99.90
19330;DHT22;9799;48.214;16.388;2023-02-26T15:23:35;4.40;99.90
19330;DHT22;9799;48.214;16.388;2023-02-26T15:27:02;4.50;99.90
19330;DHT22;9799;48.214;16.388;2023-02-26T15:30:26;4.60;99.90
19330;DHT22;9799;48.214;16.388;2023-02-26T15:33:54;4.60;99.90
19330;DHT22;9799;48.214;16.388;2023-02-26T15:37:21;4.40;99.90
19330;DHT22;9799;48.214;16.388;2023-02-26T15:40:46;4.40;99.90
19330;DHT22;9799;48.214;16.388;2023-02-26T15:44:13;4.50;99.90
19330;DHT22;9799;48.214;16.388;2023-02-26T15:47:36;4.50;99.90
19330;DHT22;9799;48.214;16.388;2023-02-26T15:51:00;4.50;99.90
19330;DHT22;9799;48.214;16.388;2023-02-26T15:54:31;4.50;99.90
19330;DHT22;9799;48.214;16.388;2023-02-26T15:57:55;4.60;99.90
19330;DHT22;9799;48.214;16.388;2023-02-26T16:01:22;4.60;99.90
19330;DHT22;9799;48.214;16.388;2023-02-26T16:04:45;4.60;99.90
19330;DHT22;9799;48.214;16.388;2023-02-26T16:08:10;4.70;99.90
19330;DHT22;9799;48.214;16.388;2023-02-26T16:11:39;4.70;99.90
19330;DHT22;9799;48.214;16.388;2023-02-26T16:15:06;4.50;99.90
19330;DHT22;9799;48.214;16.388;2023-02-26T16:18:31;4.60;99.90
19330;DHT22;9799;48.214;16.388;2023-02-26T16:21:55;4.40;99.90
19330;DHT22;9799;48.214;16.388;2023-02-26T16:25:22;4.40;99.90
19330;DHT22;9799;48.214;16.388;2023-02-26T16:28:45;4.40;99.90
19330;DHT22;9799;48.214;16.388;2023-02-26T16:32:11;4.30;99.90
19330;DHT22;9799;48.214;16.388;2023-02-26T16:35:38;4.50;99.90
19330;DHT22;9799;48.214;16.388;2023-02-26T16:39:09;4.40;99.90
19330;DHT22;9799;48.214;16.388;2023-02-26T16:42:43;4.50;99.90
19330;DHT22;9799;48.214;16.388;2023-02-26T16:46:06;4.30;99.90
19330;DHT22;9799;48.214;16.388;2023-02-26T16:49:35;4.40;99.90
19330;DHT22;9799;48.214;16.388;2023-02-26T16:53:00;4.40;99.90
19330;DHT22;9799;48.214;16.388;2023-02-26T16:56:33;4.40;99.90
19330;DHT22;9799;48.214;16.388;2023-02-26T16:59:58;4.50;99.90
19330;DHT22;9799;48.214;16.388;2023-02-26T17:03:25;4.40;99.90
19330;DHT22;9799;48.214;16.388;2023-02-26T17:06:50;4.30;99.90
19330;DHT22;9799;48.214;16.388;2023-02-26T17:10:18;4.30;99.90
19330;DHT22;9799;48.214;16.388;2023-02-26T17:13:42;4.10;99.90
19330;DHT22;9799;48.214;16.388;2023-02-26T17:17:05;4.10;99.90
19330;DHT22;9799;48.214;16.388;2023-02-26T17:20:29;4.20;99.90
19330;DHT22;9799;48.214;16.388;2023-02-26T17:23:53;4.30;99.90
19330;DHT22;9799;48.214;16.388;2023-02-26T17:27:17;4.40;99.90
19330;DHT22;9799;48.214;16.388;2023-02-26T17:30:43;4.40;99.90
19330;DHT22;9799;48.214;16.388;2023-02-26T17:34:08;4.40;99.90
19330;DHT22;9799;48.214;16.388;2023-02-26T17:37:31;4.40;99.90
19330;DHT22;9799;48.214;16.388;2023-02-26T17:40:55;4.30;99.90
19330;DHT22;9799;48.214;16.388;2023-02-26T17:44:18;4.30;99.90
19330;DHT22;9799;48.214;16.388;2023-02-26T17:47:40;4.40;99.90
19330;DHT22;9799;48.214;16.388;2023-02-26T17:51:03;4.10;99.80
19330;DHT22;9799;48.214;16.388;2023-02-26T17:54:26;4.20;99.90
19330;DHT22;9799;48.214;16.388;2023-02-26T17:57:51;4.20;99.90
19330;DHT22;9799;48.214;16.388;2023-02-26T18:01:13;4.20;99.40
19330;DHT22;9799;48.214;16.388;2023-02-26T18:04:36;4.10;99.50
19330;DHT22;9799;48.214;16.388;2023-02-26T18:07:57;3.90;99.50
19330;DHT22;9799;48.214;16.388;2023-02-26T18:11:20;4.00;99.60
19330;DHT22;9799;48.214;16.388;2023-02-26T18:14:46;3.90;99.90
19330;DHT22;9799;48.214;16.388;2023-02-26T18:18:09;3.90;99.90
19330;DHT22;9799;48.214;16.388;2023-02-26T18:21:32;3.90;99.90
19330;DHT22;9799;48.214;16.388;2023-02-26T18:24:54;4.00;99.90
19330;DHT22;9799;48.214;16.388;2023-02-26T18:28:17;4.00;99.90
19330;DHT22;9799;48.214;16.388;2023-02-26T18:31:42;4.00;99.90
19330;DHT22;9799;48.214;16.388;2023-02-26T18:35:04;3.90;99.90
19330;DHT22;9799;48.214;16.388;2023-02-26T18:38:27;3.80;99.90
19330;DHT22;9799;48.214;16.388;2023-02-26T18:41:50;3.70;99.90
19330;DHT22;9799;48.214;16.388;2023-02-26T18:45:12;3.70;99.90
19330;DHT22;9799;48.214;16.388;2023-02-26T18:48:39;3.80;99.90
19330;DHT22;9799;48.214;16.388;2023-02-26T18:52:01;3.90;99.90
19330;DHT22;9799;48.214;16.388;2023-02-26T18:55:24;3.70;99.90
19330;DHT22;9799;48.214;16.388;2023-02-26T18:58:47;3.90;99.90
19330;DHT22;9799;48.214;16.388;2023-02-26T19:02:11;4.00;99.90
19330;DHT22;9799;48.214;16.388;2023-02-26T19:05:34;4.10;99.90
19330;DHT22;9799;48.214;16.388;2023-02-26T19:08:55;4.00;99.90
19330;DHT22;9799;48.214;16.388;2023-02-26T19:12:21;4.00;99.90
19330;DHT22;9799;48.214;16.388;2023-02-26T19:15:46;3.90;99.90
19330;DHT22;9799;48.214;16.388;2023-02-26T19:19:09;3.90;99.90
19330;DHT22;9799;48.214;16.388;2023-02-26T19:22:34;3.90;99.90
19330;DHT22;9799;48.214;16.388;2023-02-26T19:25:57;4.10;99.90
19330;DHT22;9799;48.214;16.388;2023-02-26T19:29:19;3.80;99.90
19330;DHT22;9799;48.214;16.388;2023-02-26T19:32:42;3.80;99.90
19330;DHT22;9799;48.214;16.388;2023-02-26T19:36:05;3.80;99.90
19330;DHT22;9799;48.214;16.388;2023-02-26T19:39:30;3.70;99.90
19330;DHT22;9799;48.214;16.388;2023-02-26T19:42:54;3.60;99.90
19330;DHT22;9799;48.214;16.388;2023-02-26T19:46:16;3.60;99.90
19330;DHT22;9799;48.214;16.388;2023-02-26T19:49:38;3.60;99.90
19330;DHT22;9799;48.214;16.388;2023-02-26T19:53:00;3.60;99.90
19330;DHT22;9799;48.214;16.388;2023-02-26T19:56:24;3.50;99.90
19330;DHT22;9799;48.214;16.388;2023-02-26T19:59:46;3.50;99.90
19330;DHT22;9799;48.214;16.388;2023-02-26T20:03:09;3.50;99.90
19330;DHT22;9799;48.214;16.388;2023-02-26T20:06:33;3.40;99.90
19330;DHT22;9799;48.214;16.388;2023-02-26T20:09:55;3.40;99.90
19330;DHT22;9799;48.214;16.388;2023-02-26T20:13:19;3.50;99.90
19330;DHT22;9799;48.214;16.388;2023-02-26T20:16:43;3.50;99.90
19330;DHT22;9799;48.214;16.388;2023-02-26T20:20:07;3.40;99.90
19330;DHT22;9799;48.214;16.388;2023-02-26T20:23:33;3.30;99.90
19330;DHT22;9799;48.214;16.388;2023-02-26T20:26:57;3.30;99.90
19330;DHT22;9799;48.214;16.388;2023-02-26T20:30:21;3.20;99.90
19330;DHT22;9799;48.214;16.388;2023-02-26T20:33:43;3.20;99.90
19330;DHT22;9799;48.214;16.388;2023-02-26T20:37:06;3.20;99.90
19330;DHT22;9799;48.214;16.388;2023-02-26T20:40:28;3.30;99.90
19330;DHT22;9799;48.214;16.388;2023-02-26T20:43:50;3.20;99.90
19330;DHT22;9799;48.214;16.388;2023-02-26T20:47:14;3.10;99.90
19330;DHT22;9799;48.214;16.388;2023-02-26T20:50:39;3.20;99.90
19330;DHT22;9799;48.214;16.388;2023-02-26T20:54:02;3.30;99.90
19330;DHT22;9799;48.214;16.388;2023-02-26T20:57:25;3.20;99.90
19330;DHT22;9799;48.214;16.388;2023-02-26T21:00:48;3.30;99.90
19330;DHT22;9799;48.214;16.388;2023-02-26T21:04:14;3.20;99.90
19330;DHT22;9799;48.214;16.388;2023-02-26T21:07:36;3.10;99.90
19330;DHT22;9799;48.214;16.388;2023-02-26T21:10:58;3.10;99.90
19330;DHT22;9799;48.214;16.388;2023-02-26T21:14:21;3.10;99.90
19330;DHT22;9799;48.214;16.388;2023-02-26T21:17:45;3.20;99.90
19330;DHT22;9799;48.214;16.388;2023-02-26T21:21:09;3.30;99.90
19330;DHT22;9799;48.214;16.388;2023-02-26T21:24:31;3.10;99.90
19330;DHT22;9799;48.214;16.388;2023-02-26T21:27:52;3.00;99.90
19330;DHT22;9799;48.214;16.388;2023-02-26T21:31:15;3.10;99.90
19330;DHT22;9799;48.214;16.388;2023-02-26T21:34:39;3.20;99.90
19330;DHT22;9799;48.214;16.388;2023-02-26T21:38:05;3.20;99.90
19330;DHT22;9799;48.214;16.388;2023-02-26T21:41:26;3.20;99.90
19330;DHT22;9799;48.214;16.388;2023-02-26T21:44:49;3.30;99.90
19330;DHT22;9799;48.214;16.388;2023-02-26T21:48:11;3.20;99.90
19330;DHT22;9799;48.214;16.388;2023-02-26T21:51:33;3.20;99.90
19330;DHT22;9799;48.214;16.388;2023-02-26T21:54:56;3.20;99.90
19330;DHT22;9799;48.214;16.388;2023-02-26T21:58:18;3.10;99.90
19330;DHT22;9799;48.214;16.388;2023-02-26T22:01:39;3.10;99.90
19330;DHT22;9799;48.214;16.388;2023-02-26T22:05:00;3.10;99.90
19330;DHT22;9799;48.214;16.388;2023-02-26T22:08:22;3.10;99.90
19330;DHT22;9799;48.214;16.388;2023-02-26T22:11:45;3.00;99.90